Latest Weather Observations for Collie East

IDW60801

Issued at 10:02 am WST Friday 29 May 2015 (issued every 30 minutes, with the page automatically refreshed every 10 minutes)

About weather observations | Map of weather stations | Latest weather observations for WA | Other Formats
Station Details ID: 009994 Name: COLLIE EAST Lat: -33.36 Lon: 116.17 Height: 200.0 m
Data from the previous 72 hours. | See also: Recent months at Collie East
Date/Time
WST
Temp
°C
App
Temp
°C
Dew
Point
Rel
Hum
%
Delta-T
°C
Wind Press
QNH
hPa
Press
MSL
hPa
Rain
since 9 am
mm
Dir
 
Spd
km/h
Gust
km/h
Spd
kts
Gust
kts
29/10:00am 9.2 8.4 6.6 84 1.2 CALM 0 6 0 3 - - 0.0
29/09:30am 7.2 6.3 6.0 92 0.5 CALM 0 0 0 0 - - 0.0
29/09:00am 6.0 4.5 5.1 94 0.4 NNE 2 7 1 4 - - 0.0
29/08:30am 4.0 2.5 3.1 94 0.4 CALM 0 0 0 0 - - 0.0
29/08:00am 2.0 0.2 1.1 94 0.3 CALM 0 0 0 0 - - 0.0
29/07:30am 1.0 -1.0 0.0 93 0.4 CALM 0 0 0 0 - - 0.0
29/07:00am 1.5 -0.4 0.6 94 0.3 CALM 0 0 0 0 - - 0.0
29/06:30am 1.8 0.0 0.9 94 0.3 CALM 0 0 0 0 - - 0.0
29/06:00am 2.1 0.3 1.2 94 0.3 CALM 0 0 0 0 - - 0.0
29/05:30am 2.1 0.3 1.1 93 0.4 CALM 0 0 0 0 - - 0.0
29/05:00am 2.3 0.5 1.3 93 0.4 CALM 0 0 0 0 - - 0.0
29/04:30am 2.2 0.4 1.2 93 0.4 CALM 0 0 0 0 - - 0.0
29/04:00am 2.3 0.5 1.3 93 0.4 CALM 0 0 0 0 - - 0.0
29/03:30am 2.1 0.3 1.1 93 0.4 CALM 0 0 0 0 - - 0.0
29/03:00am 2.5 0.7 1.5 93 0.4 CALM 0 0 0 0 - - 0.0
29/02:30am 2.5 0.7 1.5 93 0.4 CALM 0 0 0 0 - - 0.0
29/02:00am 3.0 1.3 2.0 93 0.4 CALM 0 0 0 0 - - 0.0
29/01:30am 3.5 1.9 2.5 93 0.4 CALM 0 0 0 0 - - 0.0
29/01:00am 3.9 2.3 2.7 92 0.5 CALM 0 0 0 0 - - 0.0
29/12:30am 4.2 2.7 3.0 92 0.5 CALM 0 0 0 0 - - 0.0
29/12:00am 5.0 3.6 3.8 92 0.5 CALM 0 0 0 0 - - 0.0
 
Date/Time
WST
Temp
°C
App
Temp
°C
Dew
Point
Rel
Hum
%
Delta-T
°C
Wind Press
QNH
hPa
Press
MSL
hPa
Rain
since 9 am
mm
Dir
 
Spd
km/h
Gust
km/h
Spd
kts
Gust
kts
28/11:30pm 5.8 4.6 4.4 91 0.6 CALM 0 0 0 0 - - 0.0
28/11:00pm 6.0 4.8 4.6 91 0.6 CALM 0 0 0 0 - - 0.0
28/10:30pm 7.4 5.7 6.0 91 0.6 ESE 4 9 2 5 - - 0.0
28/10:00pm 7.2 5.8 5.3 88 0.9 SE 2 6 1 3 - - 0.0
28/09:30pm 8.2 6.5 5.8 85 1.1 ESE 4 7 2 4 - - 0.0
28/09:00pm 9.2 7.7 7.0 86 1.0 SSE 4 7 2 4 - - 0.0
28/08:30pm 9.5 8.8 7.1 85 1.1 CALM 0 0 0 0 - - 0.0
28/08:00pm 9.7 8.6 7.1 84 1.2 ESE 2 6 1 3 - - 0.0
28/07:30pm 9.6 8.8 6.7 82 1.4 CALM 0 0 0 0 - - 0.0
28/07:00pm 10.0 9.4 7.3 83 1.3 CALM 0 0 0 0 - - 0.0
28/06:30pm 10.8 10.2 7.3 79 1.7 CALM 0 0 0 0 - - 0.0
28/06:00pm 11.4 10.3 7.1 75 2.1 ESE 2 6 1 3 - - 0.0
28/05:30pm 12.0 10.5 6.9 71 2.5 ESE 4 7 2 4 - - 0.0
28/05:00pm 12.6 10.8 7.1 69 2.7 SE 6 9 3 5 - - 0.0
28/04:30pm 13.0 10.9 6.8 66 3.0 SE 7 13 4 7 - - 0.0
28/04:00pm 13.2 11.1 6.5 64 3.2 ESE 7 13 4 7 - - 0.0
28/03:30pm 12.9 10.4 6.7 66 3.0 ESE 9 15 5 8 - - 0.0
28/03:00pm 13.2 11.1 6.8 65 3.1 SE 7 15 4 8 - - 0.0
28/02:30pm 13.7 11.6 6.6 62 3.5 ESE 7 17 4 9 - - 0.0
28/02:00pm 13.7 11.5 6.3 61 3.6 SE 7 17 4 9 - - 0.0
28/01:30pm 14.0 11.5 6.6 61 3.6 ESE 9 13 5 7 - - 0.0
28/01:00pm 13.3 10.7 6.2 62 3.4 ESE 9 17 5 9 - - 0.0
28/12:30pm 13.5 11.0 6.6 63 3.4 ESE 9 15 5 8 - - 0.0
28/12:00pm 13.6 11.3 7.6 67 3.0 ESE 9 15 5 8 - - 0.0
28/11:30am 13.3 11.1 7.7 69 2.8 SE 9 15 5 8 - - 0.0
28/11:00am 13.5 10.5 7.5 67 3.0 E 13 22 7 12 - - 0.0
28/10:30am 12.8 10.2 7.7 71 2.5 E 11 17 6 9 - - 0.0
28/10:00am 12.1 10.3 8.0 76 2.0 ESE 7 13 4 7 - - 0.0
28/09:30am 11.9 10.7 9.6 86 1.2 SSE 6 11 3 6 - - 0.0
28/09:00am 9.7 8.0 8.5 92 0.6 SE 7 13 4 7 - - 1.4
28/08:30am 8.6 6.9 7.7 94 0.4 SE 6 9 3 5 - - 1.4
28/08:00am 6.9 6.0 6.0 94 0.4 CALM 0 6 0 3 - - 1.4
28/07:30am 6.4 5.4 5.5 94 0.4 CALM 0 4 0 2 - - 1.4
28/07:00am 6.7 5.4 5.8 94 0.4 S 2 6 1 3 - - 1.4
28/06:30am 7.3 6.5 6.4 94 0.4 CALM 0 0 0 0 - - 1.4
28/06:00am 7.4 6.6 6.3 93 0.5 CALM 0 0 0 0 - - 1.4
28/05:30am 8.2 7.5 7.1 93 0.5 CALM 0 0 0 0 - - 1.4
28/05:00am 8.4 7.8 7.3 93 0.5 CALM 0 0 0 0 - - 1.4
28/04:30am 8.5 7.9 7.4 93 0.5 CALM 0 0 0 0 - - 1.4
28/04:00am 8.4 7.8 7.3 93 0.5 CALM 0 0 0 0 - - 1.2
28/03:30am 8.3 7.6 7.1 92 0.6 CALM 0 0 0 0 - - 1.2
28/03:00am 9.5 9.1 8.4 93 0.5 CALM 0 0 0 0 - - 1.2
28/02:30am 10.0 9.8 8.9 93 0.5 CALM 0 0 0 0 - - 1.2
28/02:00am 10.1 9.9 9.0 93 0.5 CALM 0 0 0 0 - - 1.2
28/01:30am 10.2 10.0 9.1 93 0.6 CALM 0 0 0 0 - - 1.2
28/01:00am 10.4 10.3 9.3 93 0.6 CALM 0 0 0 0 - - 1.2
28/12:30am 10.4 10.3 9.3 93 0.6 CALM 0 0 0 0 - - 1.2
28/12:00am 10.4 10.3 9.3 93 0.6 CALM 0 0 0 0 - - 1.2
 
Date/Time
WST
Temp
°C
App
Temp
°C
Dew
Point
Rel
Hum
%
Delta-T
°C
Wind Press
QNH
hPa
Press
MSL
hPa
Rain
since 9 am
mm
Dir
 
Spd
km/h
Gust
km/h
Spd
kts
Gust
kts
27/11:30pm 9.9 9.2 8.7 92 0.6 S 2 7 1 4 - - 0.6
27/11:00pm 9.1 8.6 7.7 91 0.7 CALM 0 0 0 0 - - 0.0
27/10:30pm 8.7 8.1 7.2 90 0.7 CALM 0 0 0 0 - - 0.0
27/10:00pm 8.5 7.4 7.0 90 0.7 SW 2 6 1 3 - - 0.0
27/09:30pm 8.6 7.9 6.9 89 0.8 CALM 0 0 0 0 - - 0.0
27/09:00pm 9.4 8.8 7.5 88 0.9 CALM 0 0 0 0 - - 0.0
27/08:30pm 9.3 8.7 7.6 89 0.8 CALM 0 0 0 0 - - 0.0
27/08:00pm 9.0 8.4 7.3 89 0.8 CALM 0 0 0 0 - - 0.0
27/07:30pm 9.1 8.3 6.7 85 1.1 CALM 0 0 0 0 - - 0.0
27/07:00pm 10.5 10.0 7.7 83 1.4 CALM 0 0 0 0 - - 0.0
27/06:30pm 11.3 10.8 8.0 80 1.6 CALM 0 0 0 0 - - 0.0
27/06:00pm 11.9 11.4 8.0 77 1.9 CALM 0 0 0 0 - - 0.0
27/05:30pm 12.8 12.3 7.9 72 2.4 CALM 0 0 0 0 - - 0.0
27/05:00pm 14.0 12.7 7.5 65 3.2 WSW 4 7 2 4 - - 0.0
27/04:30pm 15.9 14.1 7.1 56 4.4 W 6 9 3 5 - - 0.0
27/04:00pm 15.7 13.6 6.7 55 4.5 S 7 15 4 8 - - 0.0
27/03:30pm 15.2 13.3 6.5 56 4.3 WSW 6 9 3 5 - - 0.0
27/03:00pm 15.7 13.4 5.6 51 4.9 SSW 7 13 4 7 - - 0.0
27/02:30pm 15.4 13.5 7.4 59 4.0 SW 7 17 4 9 - - 0.0
27/02:00pm 15.1 12.6 6.4 56 4.3 SSW 9 15 5 8 - - 0.0
27/01:30pm 15.5 13.3 6.2 54 4.5 SW 7 11 4 6 - - 0.0
27/01:00pm 15.5 13.3 6.0 53 4.6 WSW 7 17 4 9 - - 0.0
27/12:30pm 15.3 13.1 5.5 52 4.7 SW 6 11 3 6 - - 0.0
27/12:00pm 15.0 12.7 5.5 53 4.6 W 7 9 4 5 - - 0.0
27/11:30am 14.6 12.6 6.4 58 4.0 W 6 9 3 5 - - 0.0
27/11:00am 13.9 12.6 5.8 58 3.9 WNW 2 7 1 4 - - 0.0
27/10:30am 13.4 12.7 7.0 65 3.1 CALM 0 0 0 0 - - 0.0
27/10:00am 12.2 11.8 8.1 76 2.0 CALM 0 0 0 0 - - 0.0
27/09:30am 11.1 10.9 9.2 88 1.0 CALM 0 0 0 0 - - 0.0
27/09:00am 8.5 7.9 7.6 94 0.4 CALM 0 0 0 0 - - 0.0
27/08:30am 7.1 6.2 6.2 94 0.4 CALM 0 0 0 0 - - 0.0
27/08:00am 6.0 4.9 5.1 94 0.4 CALM 0 2 0 1 - - 0.0
27/07:30am 5.5 4.3 4.5 93 0.4 CALM 0 0 0 0 - - 0.0
27/07:00am 5.3 4.0 4.3 93 0.4 CALM 0 0 0 0 - - 0.0
27/06:30am 5.2 3.9 4.2 93 0.4 CALM 0 0 0 0 - - 0.0
27/06:00am 4.7 3.3 3.7 93 0.4 CALM 0 0 0 0 - - 0.0
27/05:30am 4.6 3.2 3.6 93 0.4 CALM 0 0 0 0 - - 0.0
27/05:00am 5.4 4.2 4.4 93 0.4 CALM 0 0 0 0 - - 0.0
27/04:30am 5.9 4.8 4.9 93 0.4 CALM 0 0 0 0 - - 0.0
27/04:00am 6.1 5.0 5.1 93 0.4 CALM 0 0 0 0 - - 0.0
27/03:30am 6.2 5.1 5.2 93 0.4 CALM 0 0 0 0 - - 0.0
27/03:00am 6.5 5.4 5.3 92 0.5 CALM 0 0 0 0 - - 0.0
27/02:30am 7.2 6.3 6.1 93 0.5 CALM 0 0 0 0 - - 0.0
27/02:00am 7.1 6.2 5.9 92 0.5 CALM 0 0 0 0 - - 0.0
27/01:30am 6.7 5.6 5.3 91 0.6 CALM 0 0 0 0 - - 0.0
27/01:00am 7.8 7.0 6.6 92 0.6 CALM 0 0 0 0 - - 0.0
27/12:30am 8.4 7.7 7.0 91 0.7 CALM 0 0 0 0 - - 0.0
27/12:00am 8.7 8.1 7.3 91 0.7 CALM 0 0 0 0 - - 0.0
 
Date/Time
WST
Temp
°C
App
Temp
°C
Dew
Point
Rel
Hum
%
Delta-T
°C
Wind Press
QNH
hPa
Press
MSL
hPa
Rain
since 9 am
mm
Dir
 
Spd
km/h
Gust
km/h
Spd
kts
Gust
kts
26/11:30pm 9.2 8.6 7.6 90 0.8 CALM 0 0 0 0 - - 0.0
26/11:00pm 9.6 9.1 8.0 90 0.8 CALM 0 0 0 0 - - 0.0
26/10:30pm 9.6 9.1 8.0 90 0.8 CALM 0 0 0 0 - - 0.0
26/10:00pm 10.1 9.4 8.7 91 0.7 ESE 2 7 1 4 - - 0.0
26/09:30pm 9.8 9.4 8.4 91 0.7 CALM 0 0 0 0 - - 0.0
26/09:00pm 9.6 9.2 8.2 91 0.7 CALM 0 0 0 0 - - 0.0
26/08:30pm 9.3 8.8 7.9 91 0.7 CALM 0 0 0 0 - - 0.0
26/08:00pm 9.5 9.0 7.9 90 0.8 CALM 0 0 0 0 - - 0.0
26/07:30pm 9.7 9.2 8.0 89 0.8 CALM 0 0 0 0 - - 0.0
26/07:00pm 10.3 9.9 8.2 87 1.0 CALM 0 0 0 0 - - 0.0
26/06:30pm 11.6 11.3 8.8 83 1.4 CALM 0 0 0 0 - - 0.0
26/06:00pm 12.3 12.2 9.5 83 1.4 CALM 0 0 0 0 - - 0.0
26/05:30pm 12.6 11.3 9.1 79 1.8 SE 6 11 3 6 - - 0.0
26/05:00pm 13.6 11.8 9.5 76 2.1 SSE 9 17 5 9 - - 0.0
26/04:30pm 14.6 12.8 9.6 72 2.6 S 9 20 5 11 - - 0.0
26/04:00pm 15.5 13.8 9.8 69 3.0 SSW 9 17 5 9 - - 0.0
26/03:30pm 16.0 13.8 9.4 65 3.5 SSW 11 19 6 10 - - 0.0
26/03:00pm 17.3 15.2 9.7 61 4.0 SW 11 19 6 10 - - 0.0
26/02:30pm 17.7 15.7 8.6 55 4.7 WSW 9 15 5 8 - - 0.0
26/02:00pm 19.0 16.5 8.1 49 5.7 W 11 17 6 9 - - 0.0
26/01:30pm 18.7 16.1 7.8 49 5.6 W 11 24 6 13 - - 0.0
26/01:00pm 18.3 15.0 6.5 46 5.9 W 13 20 7 11 - - 0.0
26/12:30pm 18.6 16.1 8.0 50 5.5 WSW 11 20 6 11 - - 0.0
26/12:00pm 17.7 14.3 7.7 52 5.1 WSW 15 28 8 15 - - 0.0
26/11:30am 17.1 15.2 9.0 59 4.2 W 9 15 5 8 - - 0.0
26/11:00am 16.3 14.1 9.5 64 3.6 SW 11 20 6 11 - - 0.0
26/10:30am 16.0 14.4 10.3 69 3.0 WSW 9 17 5 9 - - 0.0

Other Formats:

Comma delimited format used in spreadsheet applications
http://www.bom.gov.au/fwo/IDW60801/IDW60801.95621.axf

JavaScript Object Notation format (JSON) in row-major order
http://www.bom.gov.au/fwo/IDW60801/IDW60801.95621.json